Time;durP1;ratioP1;P1;durP2;ratioP2;P2;SDS_P1;SDS_P2;PMS_P1;PMS_P2;Temp;Humidity;BMP_temperature;BMP_pressure;BME280_temperature;BME280_humidity;BME280_pressure;Samples;Min_cycle;Max_cycle;Signal;HPM_P1;HPM_P2
2021/05/10 00:01:01;;;;;;;;;;;;;;;13.36;68.43;99643.85;3069468;77;20331;-65
2021/05/10 00:05:13;;;;;;;;;;;;;;;13.38;68.41;99637.88;3015156;78;20346;-66
2021/05/10 00:09:25;;;;;;;;;;;;;;;13.32;68.24;99635.83;3069049;76;20706;-66
2021/05/10 00:13:41;;;;;;;;;;;;;;;13.19;68.06;99637.13;3079024;77;20424;-66
2021/05/10 00:17:50;;;;;;;;;;;;;;;13.23;68.01;99650.97;3020299;78;20127;-65
2021/05/10 00:22:02;;;;;;;;;;;;;;;13.10;68.58;99644.25;3060950;77;20508;-67
2021/05/10 00:26:13;;;;;;;;;;;;;;;13.08;68.38;99649.39;3069245;76;20164;-66
2021/05/10 00:30:26;;;;;;;;;;;;;;;13.20;67.60;99641.47;3060403;77;20575;-65
2021/05/10 00:34:39;;;;;;;;;;;;;;;13.41;66.92;99646.91;3060454;77;20161;-67
2021/05/10 00:38:51;;;;;;;;;;;;;;;13.43;67.10;99643.61;3060448;77;20164;-66
2021/05/10 00:43:03;;;;;;;;;;;;;;;13.37;67.15;99654.39;3060403;77;20129;-64
2021/05/10 00:47:15;;;;;;;;;;;;;;;13.17;67.62;99652.47;3060458;77;20994;-66
2021/05/10 00:51:27;;;;;;;;;;;;;;;13.04;67.69;99649.38;2929148;80;20148;-66
2021/05/10 00:55:39;;;;;;;;;;;;;;;12.87;68.24;99642.59;3069056;77;20184;-66
2021/05/10 00:59:52;;;;;;;;;;;;;;;12.67;68.62;99644.13;3060418;77;20157;-65
2021/05/10 01:04:06;;;;;;;;;;;;;;;12.61;68.65;99643.42;3020172;78;20131;-66
2021/05/10 01:08:17;;;;;;;;;;;;;;;12.52;68.90;99636.33;3011971;77;20491;-65
2021/05/10 01:12:30;;;;;;;;;;;;;;;12.55;68.73;99648.88;3047156;77;20524;-67
2021/05/10 01:16:43;;;;;;;;;;;;;;;12.52;68.73;99648.33;3060168;76;20184;-66
2021/05/10 01:20:56;;;;;;;;;;;;;;;12.45;68.58;99639.28;3163681;74;20532;-66
2021/05/10 01:25:11;;;;;;;;;;;;;;;12.45;68.69;99636.61;3059993;77;20524;-66
2021/05/10 01:29:23;;;;;;;;;;;;;;;12.49;68.29;99635.31;3060222;77;20156;-65
2021/05/10 01:33:35;;;;;;;;;;;;;;;12.62;67.43;99634.42;3068864;77;20153;-65
2021/05/10 01:37:47;;;;;;;;;;;;;;;12.82;66.70;99631.56;3062676;76;20132;-65
2021/05/10 01:42:00;;;;;;;;;;;;;;;12.99;66.16;99626.66;3060285;76;20204;-66
2021/05/10 01:46:12;;;;;;;;;;;;;;;13.07;66.02;99623.21;3068980;77;20128;-66
2021/05/10 01:50:26;;;;;;;;;;;;;;;13.18;65.39;99622.58;3060522;77;20512;-65
2021/05/10 01:54:37;;;;;;;;;;;;;;;13.28;65.13;99621.98;3020279;78;20197;-65
2021/05/10 01:58:53;;;;;;;;;;;;;;;13.31;65.28;99628.81;3129828;76;20152;-65
2021/05/10 02:03:12;;;;;;;;;;;;;;;13.26;65.40;99630.14;3060690;77;20188;-67
2021/05/10 02:07:24;;;;;;;;;;;;;;;13.18;65.34;99634.11;3016016;78;20097;-65
2021/05/10 02:11:35;;;;;;;;;;;;;;;13.18;65.76;99632.78;3020317;78;20139;-66
2021/05/10 02:15:50;;;;;;;;;;;;;;;13.18;65.58;99630.11;3014151;78;20184;-65
2021/05/10 02:20:02;;;;;;;;;;;;;;;13.17;65.74;99632.44;3014504;78;20167;-65
2021/05/10 02:24:13;;;;;;;;;;;;;;;13.09;66.00;99624.37;3011302;78;20154;-65
2021/05/10 02:28:27;;;;;;;;;;;;;;;13.02;66.27;99622.00;3069362;77;20133;-66
2021/05/10 02:32:40;;;;;;;;;;;;;;;12.92;66.46;99618.93;3060815;77;20199;-65
2021/05/10 02:36:51;;;;;;;;;;;;;;;12.82;66.39;99624.38;3011297;79;20585;-64
2021/05/10 02:41:03;;;;;;;;;;;;;;;12.79;66.59;99631.36;3164099;74;20125;-64
2021/05/10 02:45:15;;;;;;;;;;;;;;;12.77;66.86;99630.69;3061096;77;20156;-65
2021/05/10 02:49:27;;;;;;;;;;;;;;;12.78;66.98;99619.02;3060642;77;20164;-65
2021/05/10 02:53:40;;;;;;;;;;;;;;;12.81;66.92;99624.03;3060864;77;20187;-66
2021/05/10 02:57:53;;;;;;;;;;;;;;;12.86;66.82;99617.72;3020271;78;20123;-65
2021/05/10 03:02:05;;;;;;;;;;;;;;;12.97;65.95;99618.47;3019885;78;20138;-64
2021/05/10 03:06:19;;;;;;;;;;;;;;;13.01;64.83;99610.47;3040094;77;20128;-67
2021/05/10 03:10:31;;;;;;;;;;;;;;;13.15;64.38;99611.70;3060076;77;20180;-67
2021/05/10 03:14:42;;;;;;;;;;;;;;;13.17;64.51;99607.07;3060089;77;20196;-66
2021/05/10 03:18:54;;;;;;;;;;;;;;;13.24;63.68;99616.11;3047311;76;20153;-68
2021/05/10 03:23:07;;;;;;;;;;;;;;;13.23;63.70;99603.75;3060398;77;20195;-61
2021/05/10 03:27:18;;;;;;;;;;;;;;;13.27;62.96;99602.94;3060187;77;20516;-61
2021/05/10 03:31:30;;;;;;;;;;;;;;;13.38;62.83;99603.16;3068391;77;20215;-60
2021/05/10 03:35:43;;;;;;;;;;;;;;;13.48;63.04;99603.88;3060158;77;20172;-61
2021/05/10 03:39:56;;;;;;;;;;;;;;;13.66;63.80;99614.95;3073660;77;20134;-62
2021/05/10 03:44:08;;;;;;;;;;;;;;;13.83;64.00;99607.32;3060416;77;20683;-61
2021/05/10 03:48:20;;;;;;;;;;;;;;;14.01;62.50;99605.02;3047301;77;20161;-60
2021/05/10 03:52:32;;;;;;;;;;;;;;;14.18;61.44;99590.33;3069162;77;20520;-62
2021/05/10 03:56:44;;;;;;;;;;;;;;;14.43;60.32;99581.29;3060554;77;20133;-61
2021/05/10 04:00:56;;;;;;;;;;;;;;;14.68;59.68;99586.61;3015692;78;20535;-62
2021/05/10 04:09:35;;;;;;;;;;;;;;;15.71;58.69;99568.48;3016271;78;20148;-61
2021/05/10 04:13:47;;;;;;;;;;;;;;;16.65;57.74;99570.12;3070496;77;20488;-63
2021/05/10 04:17:54;;;;;;;;;;;;;;;17.79;55.02;99574.82;3021579;77;20162;-64
2021/05/10 04:22:06;;;;;;;;;;;;;;;19.19;52.80;99572.64;3071589;77;20145;-62
2021/05/10 04:26:18;;;;;;;;;;;;;;;20.39;50.71;99569.41;3063788;76;20160;-62
2021/05/10 04:30:32;;;;;;;;;;;;;;;21.52;48.77;99569.37;3072710;77;20176;-62
2021/05/10 04:34:47;;;;;;;;;;;;;;;21.96;46.75;99566.02;3063502;77;20137;-63
2021/05/10 04:38:59;;;;;;;;;;;;;;;21.31;45.94;99569.67;3022714;78;20162;-61
2021/05/10 04:43:10;;;;;;;;;;;;;;;20.50;46.80;99554.97;3062977;77;20199;-60
2021/05/10 04:47:23;;;;;;;;;;;;;;;19.62;48.61;99547.27;3050012;77;20145;-60
2021/05/10 04:51:35;;;;;;;;;;;;;;;18.78;49.97;99548.14;3062876;77;20129;-61
2021/05/10 04:55:47;;;;;;;;;;;;;;;18.23;52.17;99556.85;3022608;77;20146;-61
2021/05/10 04:59:58;;;;;;;;;;;;;;;17.98;53.04;99568.48;3062562;77;20204;-59
2021/05/10 05:08:36;;;;;;;;;;;;;;;18.20;53.10;99563.12;3017702;78;20188;-61
2021/05/10 05:12:51;;;;;;;;;;;;;;;17.91;52.27;99558.19;3022411;78;20506;-61
2021/05/10 05:17:02;;;;;;;;;;;;;;;17.62;51.44;99544.66;3062515;77;20188;-60
2021/05/10 05:21:13;;;;;;;;;;;;;;;17.48;52.14;99554.40;3021945;78;20490;-60
2021/05/10 05:25:25;;;;;;;;;;;;;;;17.44;53.26;99555.80;3062070;77;20165;-60
2021/05/10 05:29:38;;;;;;;;;;;;;;;17.35;53.77;99551.58;3062054;76;20160;-61
2021/05/10 05:33:50;;;;;;;;;;;;;;;17.31;55.12;99548.95;3026564;78;20539;-60
2021/05/10 05:38:05;;;;;;;;;;;;;;;17.25;56.15;99541.94;3021021;78;20560;-60
2021/05/10 05:42:16;;;;;;;;;;;;;;;17.20;56.31;99529.58;3131017;76;20151;-61
2021/05/10 05:46:30;;;;;;;;;;;;;;;17.11;56.13;99516.77;3061812;77;20231;-61
2021/05/10 05:50:42;;;;;;;;;;;;;;;17.09;55.79;99518.80;3016609;78;20144;-59
2021/05/10 05:54:57;;;;;;;;;;;;;;;17.23;55.09;99510.39;3061796;77;20197;-60
2021/05/10 05:59:09;;;;;;;;;;;;;;;17.37;54.62;99501.14;3048802;77;20193;-60
2021/05/10 06:03:21;;;;;;;;;;;;;;;17.52;56.01;99496.56;3021577;78;20186;-62
2021/05/10 06:07:32;;;;;;;;;;;;;;;17.66;55.98;99498.87;3026431;77;20609;-60
2021/05/10 06:11:45;;;;;;;;;;;;;;;17.82;55.22;99501.80;3071087;77;20160;-59
2021/05/10 06:15:57;;;;;;;;;;;;;;;18.24;56.35;99524.02;3062253;77;20232;-60
2021/05/10 06:20:10;;;;;;;;;;;;;;;18.70;56.04;99510.06;3049812;77;20177;-60
2021/05/10 06:24:23;;;;;;;;;;;;;;;18.94;56.29;99509.76;3078132;76;20187;-60
2021/05/10 06:28:34;;;;;;;;;;;;;;;19.09;57.76;99536.09;3013466;79;20170;-61
2021/05/10 06:32:49;;;;;;;;;;;;;;;19.41;56.53;99534.24;3063300;77;20141;-61
2021/05/10 06:36:59;;;;;;;;;;;;;;;19.88;56.46;99528.14;3063357;77;20184;-60
2021/05/10 06:41:11;;;;;;;;;;;;;;;20.45;56.79;99535.87;3016973;79;20177;-59
2021/05/10 06:45:24;;;;;;;;;;;;;;;21.15;56.76;99546.12;3023587;77;20194;-59
2021/05/10 06:49:35;;;;;;;;;;;;;;;21.94;54.79;99542.41;3014646;79;20534;-60
2021/05/10 06:53:48;;;;;;;;;;;;;;;22.59;51.28;99529.06;3072876;76;20121;-60
2021/05/10 06:58:10;;;;;;;;;;;;;;;23.02;51.24;99521.13;3083058;77;20176;-60
2021/05/10 07:02:22;;;;;;;;;;;;;;;23.20;49.51;99529.24;3015061;79;20119;-61
2021/05/10 07:06:36;;;;;;;;;;;;;;;23.44;49.37;99537.52;3042598;77;20166;-62
2021/05/10 07:10:49;;;;;;;;;;;;;;;23.71;50.04;99531.71;3015595;78;20119;-61
2021/05/10 07:15:02;;;;;;;;;;;;;;;23.90;49.15;99526.21;3024138;77;20160;-61
2021/05/10 07:19:14;;;;;;;;;;;;;;;23.92;44.74;99515.42;3024789;77;20451;-62
2021/05/10 07:23:30;;;;;;;;;;;;;;;23.93;44.24;99517.59;3015983;79;20142;-61
2021/05/10 07:28:02;;;;;;;;;;;;;;;23.93;44.04;99509.45;3131372;76;20136;-61
2021/05/10 07:32:16;;;;;;;;;;;;;;;23.90;45.64;99505.84;3138906;74;20234;-62
2021/05/10 07:36:27;;;;;;;;;;;;;;;23.92;44.50;99508.64;3064763;77;20192;-60
2021/05/10 07:40:39;;;;;;;;;;;;;;;23.92;44.76;99515.42;3025305;78;20657;-60
2021/05/10 07:44:51;;;;;;;;;;;;;;;24.27;45.73;99517.91;3025320;78;20174;-62
2021/05/10 07:49:03;;;;;;;;;;;;;;;24.45;43.72;99519.68;3025282;78;20520;-62
2021/05/10 07:53:20;;;;;;;;;;;;;;;24.28;43.48;99513.32;3025489;78;20178;-61
2021/05/10 07:57:32;;;;;;;;;;;;;;;23.91;44.09;99520.56;3015882;79;20131;-62
2021/05/10 08:01:48;;;;;;;;;;;;;;;23.99;45.42;99516.69;3025424;78;20194;-61
2021/05/10 08:06:01;;;;;;;;;;;;;;;24.23;44.85;99501.25;3154398;74;20128;-60
2021/05/10 08:10:14;;;;;;;;;;;;;;;24.61;43.21;99510.52;2924886;80;20144;-61
2021/05/10 08:14:37;;;;;;;;;;;;;;;24.87;43.84;99520.64;3025207;78;20162;-60
2021/05/10 08:18:48;;;;;;;;;;;;;;;25.07;41.82;99527.03;3040372;77;20577;-60
2021/05/10 08:23:00;;;;;;;;;;;;;;;25.25;43.17;99527.38;3081212;76;20148;-60
2021/05/10 08:27:11;;;;;;;;;;;;;;;25.45;42.95;99521.52;3025613;78;20158;-61
2021/05/10 08:31:22;;;;;;;;;;;;;;;25.58;43.04;99518.25;3081513;76;20353;-62
2021/05/10 08:35:39;;;;;;;;;;;;;;;25.78;44.12;99517.25;3074969;77;20140;-60
2021/05/10 08:39:51;;;;;;;;;;;;;;;26.12;45.31;99511.52;3041891;77;20184;-62
2021/05/10 08:44:10;;;;;;;;;;;;;;;26.01;42.63;99513.25;3040934;77;20149;-62
2021/05/10 08:48:22;;;;;;;;;;;;;;;26.10;45.51;99512.58;2994472;78;20192;-60
2021/05/10 08:52:36;;;;;;;;;;;;;;;26.21;43.86;99513.60;3013540;78;20183;-60
2021/05/10 08:56:49;;;;;;;;;;;;;;;26.28;43.43;99507.17;3009548;78;20183;-60
2021/05/10 09:01:01;;;;;;;;;;;;;;;26.35;45.54;99514.11;3038734;76;20499;-62
2021/05/10 09:05:20;;;;;;;;;;;;;;;26.31;43.88;99521.11;2996174;77;20178;-61
2021/05/10 09:09:34;;;;;;;;;;;;;;;26.42;42.68;99506.28;2993382;79;20172;-60
2021/05/10 09:13:48;;;;;;;;;;;;;;;26.50;43.76;99497.67;2998466;77;20157;-61
2021/05/10 09:18:06;;;;;;;;;;;;;;;26.51;44.17;99494.70;2999702;79;20196;-61
2021/05/10 09:22:18;;;;;;;;;;;;;;;26.46;46.28;99493.80;2999178;77;20170;-61
2021/05/10 09:26:34;;;;;;;;;;;;;;;26.54;44.28;99487.93;2994946;78;20168;-61
2021/05/10 09:30:51;;;;;;;;;;;;;;;26.56;45.72;99502.14;2990012;77;20146;-62
2021/05/10 09:35:20;;;;;;;;;;;;;;;26.65;45.30;99505.26;3066430;76;20186;-62
2021/05/10 09:39:37;;;;;;;;;;;;;;;26.68;45.84;99507.48;3014978;77;20203;-62
2021/05/10 09:44:07;;;;;;;;;;;;;;;26.71;45.85;99512.42;3038035;77;20111;-62
2021/05/10 09:48:24;;;;;;;;;;;;;;;26.84;44.35;99518.05;3027131;77;20151;-61
2021/05/10 09:52:47;;;;;;;;;;;;;;;26.80;42.22;99521.00;3057036;76;20162;-62
2021/05/10 09:57:04;;;;;;;;;;;;;;;26.74;42.59;99532.92;3006478;77;20192;-61
2021/05/10 10:01:16;;;;;;;;;;;;;;;26.76;42.97;99526.67;3053881;76;20110;-63
2021/05/10 10:05:33;;;;;;;;;;;;;;;26.85;43.19;99531.16;3023569;77;20163;-61
2021/05/10 10:09:44;;;;;;;;;;;;;;;26.85;44.50;99527.91;2981495;79;20594;-62
2021/05/10 10:13:58;;;;;;;;;;;;;;;26.98;45.57;99540.34;3010475;78;20145;-61
2021/05/10 10:18:11;;;;;;;;;;;;;;;27.11;45.93;99540.50;3031861;77;20479;-61
2021/05/10 10:22:33;;;;;;;;;;;;;;;27.13;43.72;99538.89;3053948;77;20142;-62
2021/05/10 10:26:47;;;;;;;;;;;;;;;27.19;46.08;99535.98;3017382;79;20107;-61
2021/05/10 10:31:02;;;;;;;;;;;;;;;27.30;43.90;99534.19;3039143;77;20130;-61
2021/05/10 10:35:16;;;;;;;;;;;;;;;27.37;44.29;99530.71;3069573;77;20154;-62
2021/05/10 10:39:32;;;;;;;;;;;;;;;27.45;45.26;99534.08;3009300;79;20167;-61
2021/05/10 10:43:58;;;;;;;;;;;;;;;27.57;44.06;99529.87;3069232;77;20111;-62
2021/05/10 10:48:10;;;;;;;;;;;;;;;27.66;43.61;99521.48;2988425;77;20177;-62
2021/05/10 10:52:30;;;;;;;;;;;;;;;27.73;45.19;99524.84;3026930;78;20099;-61
2021/05/10 10:56:54;;;;;;;;;;;;;;;27.76;44.58;99521.59;2998520;77;20113;-61
2021/05/10 11:01:23;;;;;;;;;;;;;;;27.86;44.02;99518.66;3122044;76;20182;-63
2021/05/10 11:05:46;;;;;;;;;;;;;;;27.78;44.00;99516.69;3154322;74;20192;-62
2021/05/10 11:09:59;;;;;;;;;;;;;;;27.82;43.84;99525.72;3062618;76;20158;-63
2021/05/10 11:14:21;;;;;;;;;;;;;;;27.88;45.13;99534.24;2965068;79;20153;-62
2021/05/10 11:23:27;;;;;;;;;;;;;;;28.04;43.47;99531.92;3075822;77;20162;-63
2021/05/10 11:28:02;;;;;;;;;;;;;;;28.16;45.11;99532.34;2999722;79;20154;-63
2021/05/10 11:32:42;;;;;;;;;;;;;;;28.33;43.04;99529.44;2968006;79;20113;-62
2021/05/10 11:37:18;;;;;;;;;;;;;;;28.48;44.63;99530.92;2933322;80;20143;-62
2021/05/10 11:42:00;;;;;;;;;;;;;;;28.42;42.73;99535.25;3012425;78;20143;-63
2021/05/10 11:46:37;;;;;;;;;;;;;;;28.40;43.37;99538.27;3067234;77;20129;-62
2021/05/10 11:51:21;;;;;;;;;;;;;;;28.56;45.27;99536.97;3027140;78;20173;-62
2021/05/10 11:55:36;;;;;;;;;;;;;;;28.85;46.16;99531.97;3055548;77;20134;-62
2021/05/10 11:59:49;;;;;;;;;;;;;;;28.94;45.78;99532.28;3044353;76;20125;-65
2021/05/10 12:04:30;;;;;;;;;;;;;;;28.98;46.91;99529.84;3026303;77;20115;-62
2021/05/10 12:08:43;;;;;;;;;;;;;;;29.03;44.98;99523.02;3035684;77;20129;-62
2021/05/10 12:13:09;;;;;;;;;;;;;;;28.99;44.95;99519.17;3111116;75;20133;-63
2021/05/10 12:17:28;;;;;;;;;;;;;;;28.99;46.53;99518.64;3076397;76;20166;-63
2021/05/10 12:21:41;;;;;;;;;;;;;;;29.05;44.67;99515.35;3009699;78;20122;-62
2021/05/10 12:25:55;;;;;;;;;;;;;;;29.08;44.96;99502.49;3007623;77;20176;-62
2021/05/10 12:30:16;;;;;;;;;;;;;;;29.00;43.57;99505.76;2998110;77;20105;-62
2021/05/10 12:34:42;;;;;;;;;;;;;;;29.04;44.34;99504.97;3010843;77;20137;-63
2021/05/10 12:38:59;;;;;;;;;;;;;;;29.05;43.24;99503.88;3002295;77;20111;-63
2021/05/10 12:43:20;;;;;;;;;;;;;;;29.12;44.08;99513.20;3008275;77;20103;-63
2021/05/10 12:47:47;;;;;;;;;;;;;;;29.19;43.46;99510.22;2983222;77;20105;-63
2021/05/10 12:52:04;;;;;;;;;;;;;;;29.25;44.08;99508.30;3067591;77;20146;-63
2021/05/10 12:56:26;;;;;;;;;;;;;;;29.36;45.21;99504.50;3086129;77;20176;-62
2021/05/10 13:00:46;;;;;;;;;;;;;;;29.52;44.41;99512.80;3027601;78;20147;-62
2021/05/10 13:05:02;;;;;;;;;;;;;;;29.63;42.51;99518.55;3027627;78;20103;-61
2021/05/10 13:09:26;;;;;;;;;;;;;;;29.62;44.06;99514.16;3086393;77;20143;-61
2021/05/10 13:13:58;;;;;;;;;;;;;;;29.69;43.67;99513.37;3061296;77;20126;-62
2021/05/10 13:18:22;;;;;;;;;;;;;;;29.70;43.38;99502.69;2999127;79;20133;-59
2021/05/10 13:59:37;;;;;;;;;;;;;;;30.38;42.20;99509.52;3027398;78;20178;-60
2021/05/10 14:03:54;;;;;;;;;;;;;;;30.46;44.58;99510.31;3027499;77;20169;-62
2021/05/10 14:08:07;;;;;;;;;;;;;;;30.52;43.70;99513.34;2987549;78;20141;-61
2021/05/10 14:12:21;;;;;;;;;;;;;;;30.56;41.82;99511.67;2944824;79;20140;-60
2021/05/10 14:16:32;;;;;;;;;;;;;;;30.57;42.24;99511.95;3005533;77;20122;-61
2021/05/10 14:34:31;;;;;;;;;;;;;;;30.59;43.42;99517.17;3017667;79;20120;-61
2021/05/10 14:52:32;;;;;;;;;;;;;;;30.69;42.94;99526.76;3019383;79;20123;-61
2021/05/10 14:56:45;;;;;;;;;;;;;;;30.75;44.39;99528.95;3082809;76;20130;-60
2021/05/10 15:01:00;;;;;;;;;;;;;;;30.78;41.84;99527.84;3085638;77;20175;-60
2021/05/10 15:05:26;;;;;;;;;;;;;;;30.78;41.48;99528.37;3004972;77;20139;-61
2021/05/10 15:09:37;;;;;;;;;;;;;;;30.69;42.03;99536.36;2937228;80;20139;-62
2021/05/10 15:13:55;;;;;;;;;;;;;;;30.61;42.96;99538.29;2986606;77;20141;-61
2021/05/10 15:18:21;;;;;;;;;;;;;;;30.59;42.50;99538.55;3076565;76;20140;-60
2021/05/10 15:22:35;;;;;;;;;;;;;;;30.59;43.78;99541.86;3008527;77;20127;-61
2021/05/10 15:26:55;;;;;;;;;;;;;;;30.60;42.33;99551.17;2992596;79;20109;-61
2021/05/10 15:31:10;;;;;;;;;;;;;;;30.54;42.21;99549.55;3006855;79;20640;-60
2021/05/10 15:35:30;;;;;;;;;;;;;;;30.46;42.03;99558.32;2967442;79;20209;-62
2021/05/10 15:39:45;;;;;;;;;;;;;;;30.40;41.93;99556.16;2994177;77;20185;-60
2021/05/10 15:43:58;;;;;;;;;;;;;;;30.24;41.60;99556.70;3123345;76;20170;-61
2021/05/10 15:48:11;;;;;;;;;;;;;;;30.16;42.63;99562.75;3026956;77;20143;-61
2021/05/10 15:52:36;;;;;;;;;;;;;;;30.09;42.44;99558.10;3019869;79;20186;-60
2021/05/10 15:56:50;;;;;;;;;;;;;;;30.03;42.27;99554.53;3077170;76;20160;-61
2021/05/10 16:01:06;;;;;;;;;;;;;;;29.92;42.40;99564.64;2992364;77;20135;-61
2021/05/10 16:05:20;;;;;;;;;;;;;;;29.81;42.27;99560.22;3063242;77;20138;-61
2021/05/10 16:09:32;;;;;;;;;;;;;;;29.64;43.19;99569.51;3073237;76;20131;-61
2021/05/10 16:13:46;;;;;;;;;;;;;;;29.54;43.93;99566.76;2992461;77;20121;-61
2021/05/10 16:18:00;;;;;;;;;;;;;;;29.49;44.34;99568.94;3060520;77;20166;-62
2021/05/10 16:22:19;;;;;;;;;;;;;;;29.44;44.66;99561.52;3106001;75;20667;-60
2021/05/10 16:26:42;;;;;;;;;;;;;;;29.34;45.24;99561.47;3012223;77;20166;-61
2021/05/10 16:30:55;;;;;;;;;;;;;;;29.20;44.63;99568.00;3058240;76;20164;-61
2021/05/10 16:35:13;;;;;;;;;;;;;;;29.05;45.44;99562.73;3045382;77;20135;-61
2021/05/10 16:39:25;;;;;;;;;;;;;;;28.91;45.75;99559.66;3045622;77;20502;-60
2021/05/10 16:43:43;;;;;;;;;;;;;;;28.74;45.39;99563.89;3030243;77;20175;-58
2021/05/10 16:47:56;;;;;;;;;;;;;;;28.55;46.24;99567.62;3014247;79;20100;-60
2021/05/10 16:52:13;;;;;;;;;;;;;;;28.34;46.39;99568.84;3153760;74;20172;-62
2021/05/10 16:56:30;;;;;;;;;;;;;;;28.11;46.53;99576.81;2985695;77;20119;-61
2021/05/10 17:00:46;;;;;;;;;;;;;;;27.91;46.30;99567.91;3005024;79;20130;-61
2021/05/10 17:05:09;;;;;;;;;;;;;;;27.69;46.49;99570.69;3102868;75;20157;-61
2021/05/10 17:09:33;;;;;;;;;;;;;;;27.41;47.21;99574.72;3017078;77;20148;-61
2021/05/10 17:13:50;;;;;;;;;;;;;;;27.14;47.59;99579.59;3011472;79;20184;-60
2021/05/10 17:18:04;;;;;;;;;;;;;;;26.94;47.87;99576.05;3038305;76;20123;-61
2021/05/10 17:22:19;;;;;;;;;;;;;;;26.77;48.42;99584.25;2995211;77;20129;-61
2021/05/10 17:26:36;;;;;;;;;;;;;;;26.60;49.94;99578.80;3050720;77;20169;-62
2021/05/10 17:30:48;;;;;;;;;;;;;;;26.42;51.92;99592.16;2995324;77;20114;-60
2021/05/10 17:35:01;;;;;;;;;;;;;;;26.17;52.81;99591.48;3020482;77;20138;-61
2021/05/10 17:39:15;;;;;;;;;;;;;;;25.97;53.12;99595.19;2999303;78;20125;-62
2021/05/10 17:43:28;;;;;;;;;;;;;;;25.79;53.46;99602.49;2966465;78;20127;-62
2021/05/10 17:47:39;;;;;;;;;;;;;;;25.61;54.08;99604.89;2951039;79;20182;-62
2021/05/10 17:51:52;;;;;;;;;;;;;;;25.37;53.60;99609.83;2994069;77;20186;-60
2021/05/10 17:56:04;;;;;;;;;;;;;;;25.22;52.95;99606.27;2973470;77;20145;-60
2021/05/10 18:00:19;;;;;;;;;;;;;;;25.16;51.78;99609.11;3004415;77;20167;-61
2021/05/10 18:04:36;;;;;;;;;;;;;;;25.10;51.20;99610.89;3006907;78;20176;-61
2021/05/10 18:08:50;;;;;;;;;;;;;;;25.02;51.14;99612.63;2938603;79;20155;-60
2021/05/10 18:13:03;;;;;;;;;;;;;;;24.89;51.12;99610.44;3000605;77;20141;-59
2021/05/10 18:17:16;;;;;;;;;;;;;;;24.71;52.06;99624.12;3010309;77;20135;-59
2021/05/10 18:21:32;;;;;;;;;;;;;;;24.30;54.14;99626.13;3016548;77;20164;-59
2021/05/10 18:25:47;;;;;;;;;;;;;;;23.93;55.58;99627.58;3074777;76;20203;-62
2021/05/10 18:30:14;;;;;;;;;;;;;;;23.56;55.85;99629.01;3058830;76;20112;-60
2021/05/10 18:34:31;;;;;;;;;;;;;;;23.20;56.03;99635.04;3000127;77;20106;-59
2021/05/10 18:38:43;;;;;;;;;;;;;;;22.96;56.37;99642.16;3025594;78;20178;-60
2021/05/10 18:42:59;;;;;;;;;;;;;;;22.74;58.10;99652.06;3016402;79;20127;-60
2021/05/10 18:47:14;;;;;;;;;;;;;;;22.38;59.27;99649.50;2934264;80;20151;-59
2021/05/10 18:51:27;;;;;;;;;;;;;;;22.07;60.29;99650.63;3025448;78;20139;-60
2021/05/10 18:55:43;;;;;;;;;;;;;;;21.84;61.24;99653.88;3011335;78;20144;-60
2021/05/10 18:59:55;;;;;;;;;;;;;;;21.67;61.74;99657.59;3025231;77;20174;-60
2021/05/10 19:04:07;;;;;;;;;;;;;;;21.48;62.01;99657.42;3073962;77;20637;-59
2021/05/10 19:08:20;;;;;;;;;;;;;;;21.37;61.43;99662.98;3056180;77;20126;-60
2021/05/10 19:12:34;;;;;;;;;;;;;;;21.29;61.32;99662.38;2924263;80;20148;-59
2021/05/10 19:16:46;;;;;;;;;;;;;;;21.19;61.42;99670.38;3023924;78;20169;-59
2021/05/10 19:21:02;;;;;;;;;;;;;;;20.86;63.04;99665.87;3011283;79;20174;-59
2021/05/10 19:25:18;;;;;;;;;;;;;;;20.61;63.04;99662.39;2976422;78;20555;-59
2021/05/10 19:29:31;;;;;;;;;;;;;;;20.51;63.60;99666.03;3015143;79;20178;-60
2021/05/10 19:33:43;;;;;;;;;;;;;;;20.38;64.26;99660.11;3028901;78;20479;-60
2021/05/10 19:37:55;;;;;;;;;;;;;;;20.22;64.77;99661.30;3014869;78;20119;-60
2021/05/10 19:42:09;;;;;;;;;;;;;;;20.12;64.92;99655.80;3023899;78;20118;-59
2021/05/10 19:46:25;;;;;;;;;;;;;;;20.07;65.39;99666.38;2986876;79;20845;-58
2021/05/10 19:50:45;;;;;;;;;;;;;;;19.89;66.06;99660.69;3049190;77;20145;-58
2021/05/10 20:26:47;;;;;;;;;;;;;;;19.16;68.86;99652.54;3045013;77;20142;-59
2021/05/10 20:31:00;;;;;;;;;;;;;;;19.12;68.93;99648.89;3049675;77;20138;-59
2021/05/10 20:35:14;;;;;;;;;;;;;;;19.10;68.72;99642.06;3013416;79;20143;-59
2021/05/10 20:39:26;;;;;;;;;;;;;;;19.09;68.58;99643.09;3050636;77;20130;-59
2021/05/10 20:43:38;;;;;;;;;;;;;;;19.12;68.02;99638.11;3023062;78;20248;-59
2021/05/10 20:47:50;;;;;;;;;;;;;;;19.23;67.53;99645.34;3063129;76;20228;-59
2021/05/10 20:52:03;;;;;;;;;;;;;;;19.25;67.39;99645.44;3050309;77;20149;-58
2021/05/10 20:56:15;;;;;;;;;;;;;;;19.05;67.87;99647.19;3063022;77;20168;-58
2021/05/10 21:00:27;;;;;;;;;;;;;;;18.74;68.91;99652.44;3003076;78;20522;-58
2021/05/10 21:04:39;;;;;;;;;;;;;;;18.42;70.09;99655.48;3038788;77;20692;-59
2021/05/10 21:08:51;;;;;;;;;;;;;;;18.13;71.31;99654.06;3015016;77;20163;-58
2021/05/10 21:13:04;;;;;;;;;;;;;;;18.02;71.78;99655.91;3062230;77;20480;-59
2021/05/10 21:17:16;;;;;;;;;;;;;;;18.07;71.96;99659.38;3048081;77;20144;-59
2021/05/10 21:25:55;;;;;;;;;;;;;;;17.95;72.38;99646.91;3022299;78;20110;-59
2021/05/10 21:30:08;;;;;;;;;;;;;;;17.82;72.71;99653.78;3052641;76;20222;-58
2021/05/10 21:34:23;;;;;;;;;;;;;;;17.86;72.44;99647.53;3012982;79;20111;-58
2021/05/10 21:38:35;;;;;;;;;;;;;;;17.95;72.07;99645.55;2985638;79;20125;-58
2021/05/10 21:42:49;;;;;;;;;;;;;;;17.92;71.84;99641.91;3031390;76;20471;-59
2021/05/10 21:47:00;;;;;;;;;;;;;;;17.76;72.25;99644.28;3056516;76;20136;-59
2021/05/10 21:51:13;;;;;;;;;;;;;;;17.61;72.53;99642.98;2970603;77;20156;-59
2021/05/10 21:55:24;;;;;;;;;;;;;;;17.51;72.92;99646.80;2998146;77;20149;-59
2021/05/10 21:59:36;;;;;;;;;;;;;;;17.41;73.12;99648.93;3049018;77;20169;-58
2021/05/10 22:03:49;;;;;;;;;;;;;;;17.37;73.60;99651.67;2999591;78;20206;-60
2021/05/10 22:08:00;;;;;;;;;;;;;;;17.47;73.31;99651.39;2985567;77;20155;-58
2021/05/10 22:12:14;;;;;;;;;;;;;;;17.56;72.55;99658.32;3051994;76;20139;-59
2021/05/10 22:16:29;;;;;;;;;;;;;;;17.55;72.33;99657.50;2984532;78;20149;-58
2021/05/10 22:25:06;;;;;;;;;;;;;;;17.54;72.34;99643.73;3039262;76;20155;-59
2021/05/10 22:29:15;;;;;;;;;;;;;;;17.61;72.21;99649.20;2990045;78;20599;-58
2021/05/10 22:33:29;;;;;;;;;;;;;;;17.61;72.11;99641.14;3029743;77;20201;-58
2021/05/10 22:37:51;;;;;;;;;;;;;;;17.49;72.41;99631.38;3043549;77;21018;-57
2021/05/10 22:42:02;;;;;;;;;;;;;;;17.38;72.94;99625.12;2988384;77;20529;-59
2021/05/10 23:31:10;;;;;;;;;;;;;;;17.45;72.72;99591.08;3061864;77;20172;-58
2021/05/10 23:35:22;;;;;;;;;;;;;;;17.49;72.65;99588.36;2921579;80;20129;-58
2021/05/10 23:39:34;;;;;;;;;;;;;;;17.40;72.66;99601.56;3061846;77;20149;-59
2021/05/10 23:43:46;;;;;;;;;;;;;;;17.25;73.71;99601.06;3079598;77;20251;-59
2021/05/10 23:47:58;;;;;;;;;;;;;;;17.19;74.33;99593.75;3015786;77;20150;-59
2021/05/10 23:52:11;;;;;;;;;;;;;;;17.17;74.16;99595.80;3057378;76;20138;-59
2021/05/10 23:56:23;;;;;;;;;;;;;;;17.11;74.42;99589.83;3061675;77;20144;-59
